Terminal Aerodrome Forecast
Issued by NWS

Home | Current Version | Previous Version | Text Only | Print | Product List | Glossary On
Versions: 1 2 3 4 5 6 7 8 9 10 11 12 13 14 15 16 17 18 19 20 21 22
000
FTUS44 KCRP 182325
TAFALI
TAF
KALI 182325Z 1900/1924 11010KT P6SM SCT018 BKN040
     FM190500 12008KT P6SM OVC012
     FM190900 16005KT 4SM BR OVC006
     FM191500 17007KT P6SM BKN008 OVC018
     FM191800 18010KT P6SM SCT020 SCT250
      TEMPO 1918/1920 BKN020=

USA.gov is the U.S. government's official web portal to all federal, state and local government web resources and services.